createdAt,value
2022-08-04T00:00:04.841Z,26.50
2022-08-04T00:02:56.162Z,26.50
2022-08-04T00:06:12.311Z,26.40
2022-08-04T00:09:03.384Z,26.40
2022-08-04T00:11:49.576Z,26.40
2022-08-04T00:14:36.281Z,26.30
2022-08-04T00:17:25.949Z,26.30
2022-08-04T00:20:15.863Z,26.30
2022-08-04T00:23:04.616Z,26.20
2022-08-04T00:25:49.923Z,26.20
2022-08-04T00:28:37.363Z,26.10
2022-08-04T00:31:53.669Z,26.10
2022-08-04T00:34:31.227Z,26.10
2022-08-04T00:37:17.079Z,26.10
2022-08-04T00:40:09.122Z,26.10
2022-08-04T00:43:08.241Z,26.10
2022-08-04T00:46:16.496Z,26.10
2022-08-04T00:49:23.920Z,26.10
2022-08-04T00:52:33.908Z,26.10
2022-08-04T00:55:57.636Z,26.20
2022-08-04T00:59:02.688Z,26.10
2022-08-04T01:02:07.628Z,26.10
2022-08-04T01:05:27.550Z,26.10
2022-08-04T01:08:13.220Z,26.10
2022-08-04T01:11:09.330Z,26.10
2022-08-04T01:14:27.596Z,26.00
2022-08-04T01:17:21.297Z,26.00
2022-08-04T01:20:09.669Z,26.00
2022-08-04T01:23:23.011Z,26.00
2022-08-04T01:26:43.591Z,25.90
2022-08-04T01:29:50.720Z,25.80
2022-08-04T01:32:46.620Z,25.70
2022-08-04T01:35:47.394Z,25.60
2022-08-04T01:38:39.945Z,25.60
2022-08-04T01:41:32.910Z,25.60
2022-08-04T01:44:19.864Z,25.50
2022-08-04T01:47:05.214Z,25.50
2022-08-04T01:49:51.560Z,25.40
2022-08-04T01:52:38.520Z,25.30
2022-08-04T01:55:24.390Z,25.30
2022-08-04T01:58:31.793Z,25.20
2022-08-04T02:01:17.352Z,25.20
2022-08-04T02:04:18.861Z,25.20
2022-08-04T02:07:24.841Z,25.20
2022-08-04T02:10:28.896Z,25.20
2022-08-04T02:13:45.258Z,25.20
2022-08-04T02:16:52.658Z,25.20
2022-08-04T02:19:46.373Z,25.10
2022-08-04T02:22:34.596Z,25.10
2022-08-04T02:25:25.046Z,25.10
2022-08-04T02:28:25.875Z,25.00
2022-08-04T02:31:15.734Z,25.00
2022-08-04T02:34:15.772Z,25.00
2022-08-04T02:37:03.719Z,24.90
2022-08-04T02:39:53.672Z,24.90
2022-08-04T02:42:39.201Z,24.90
2022-08-04T02:45:26.940Z,24.90
2022-08-04T02:48:29.923Z,24.80
2022-08-04T02:51:20.162Z,24.80
2022-08-04T02:54:06.757Z,24.70
2022-08-04T02:56:53.611Z,24.70
2022-08-04T03:00:07.045Z,24.70
2022-08-04T03:03:16.230Z,24.70
2022-08-04T03:06:13.349Z,24.60
2022-08-04T03:09:22.614Z,24.60
2022-08-04T03:12:29.470Z,24.60
2022-08-04T03:15:54.655Z,24.60
2022-08-04T03:19:03.747Z,24.60
2022-08-04T03:22:22.409Z,24.50
2022-08-04T03:25:32.165Z,24.50
2022-08-04T03:28:43.850Z,24.50
2022-08-04T03:32:06.416Z,24.50
2022-08-04T03:35:23.015Z,24.50
2022-08-04T03:39:03.569Z,24.40
2022-08-04T03:42:10.383Z,24.40
2022-08-04T03:45:23.634Z,24.30
2022-08-04T03:48:15.177Z,24.30
2022-08-04T03:51:35.238Z,24.30
2022-08-04T03:54:44.191Z,24.40
2022-08-04T03:58:06.884Z,24.40
2022-08-04T04:01:10.940Z,24.40
2022-08-04T04:04:21.753Z,24.30
2022-08-04T04:07:48.858Z,24.30
2022-08-04T04:11:29.623Z,24.30
2022-08-04T04:14:27.154Z,24.30
2022-08-04T04:17:40.131Z,24.30
2022-08-04T04:21:07.687Z,24.20
2022-08-04T04:24:06.827Z,24.20
2022-08-04T04:27:02.367Z,24.20
2022-08-04T04:30:06.623Z,24.20
2022-08-04T04:33:13.144Z,24.20
2022-08-04T04:36:28.702Z,24.00
2022-08-04T04:39:42.092Z,24.10
2022-08-04T04:43:09.908Z,24.10
2022-08-04T04:46:23.648Z,24.10
2022-08-04T04:49:14.528Z,24.10
2022-08-04T04:52:13.557Z,24.10
2022-08-04T04:55:26.783Z,24.10
2022-08-04T04:58:18.019Z,24.20
2022-08-04T05:01:28.985Z,24.20
2022-08-04T05:04:31.543Z,24.20
2022-08-04T05:07:25.425Z,24.10
2022-08-04T05:10:16.392Z,24.10
2022-08-04T05:14:38.329Z,24.20
2022-08-04T05:16:54.495Z,24.20
2022-08-04T05:19:48.385Z,24.20
2022-08-04T05:22:55.797Z,24.20
2022-08-04T05:25:59.464Z,24.20
2022-08-04T05:28:58.025Z,24.20
2022-08-04T05:31:51.385Z,24.20
2022-08-04T05:34:43.686Z,24.30
2022-08-04T05:37:31.975Z,24.30
2022-08-04T05:40:19.744Z,24.40
2022-08-04T05:43:06.869Z,24.40
2022-08-04T05:45:54.458Z,24.40
2022-08-04T05:48:41.719Z,24.50
2022-08-04T05:51:29.479Z,24.50
2022-08-04T05:54:16.651Z,24.50
2022-08-04T05:57:07.104Z,24.60
2022-08-04T05:59:53.503Z,24.60
2022-08-04T06:02:39.762Z,24.60
2022-08-04T06:05:25.951Z,24.70
2022-08-04T06:08:13.688Z,24.70
2022-08-04T06:11:04.817Z,24.60
2022-08-04T06:14:01.420Z,24.70
2022-08-04T06:16:51.442Z,24.70
2022-08-04T06:20:03.708Z,24.80
2022-08-04T06:23:02.129Z,24.80
2022-08-04T06:25:55.072Z,24.90
2022-08-04T06:28:42.571Z,24.90
2022-08-04T06:32:29.670Z,24.90
2022-08-04T06:35:01.818Z,25.00
2022-08-04T06:37:47.841Z,25.00
2022-08-04T06:40:34.901Z,25.10
2022-08-04T06:43:22.048Z,25.10
2022-08-04T06:46:09.250Z,25.20
2022-08-04T06:48:55.630Z,25.30
2022-08-04T06:51:49.002Z,25.30
2022-08-04T06:54:34.686Z,25.40
2022-08-04T06:57:23.716Z,25.50
2022-08-04T07:00:12.363Z,25.50
2022-08-04T07:02:58.357Z,25.60
2022-08-04T07:05:46.219Z,25.70
2022-08-04T07:08:32.138Z,25.80
2022-08-04T07:11:19.355Z,25.90
2022-08-04T07:14:06.501Z,26.10
2022-08-04T07:16:52.323Z,26.10
2022-08-04T07:19:38.011Z,26.30
2022-08-04T07:22:26.418Z,26.40
2022-08-04T07:25:13.155Z,26.40
2022-08-04T07:27:58.300Z,26.60
2022-08-04T07:30:45.081Z,26.60
2022-08-04T07:33:30.912Z,26.70
2022-08-04T07:36:16.855Z,26.90
2022-08-04T07:39:02.354Z,27.00
2022-08-04T07:41:48.995Z,27.00
2022-08-04T07:44:35.643Z,27.00
2022-08-04T07:47:25.172Z,27.10
2022-08-04T07:50:12.390Z,27.30
2022-08-04T07:53:22.340Z,27.30
2022-08-04T07:56:03.633Z,27.40
2022-08-04T07:58:49.910Z,27.60
2022-08-04T08:01:37.075Z,27.70
2022-08-04T08:04:22.860Z,27.80
2022-08-04T08:07:08.533Z,27.90
2022-08-04T08:09:54.091Z,28.00
2022-08-04T08:12:51.250Z,28.10
2022-08-04T08:15:37.728Z,28.20
2022-08-04T08:18:22.962Z,28.40
2022-08-04T08:21:08.968Z,28.60
2022-08-04T08:23:54.999Z,28.80
2022-08-04T08:26:41.631Z,28.90
2022-08-04T08:29:29.326Z,29.10
2022-08-04T08:32:15.828Z,29.10
2022-08-04T08:35:01.753Z,29.30
2022-08-04T08:37:58.443Z,29.40
2022-08-04T08:40:53.968Z,29.50
2022-08-04T08:44:19.136Z,29.60
2022-08-04T08:48:04.904Z,29.80
2022-08-04T08:51:14.717Z,30.00
2022-08-04T08:54:25.023Z,30.00
2022-08-04T08:57:43.839Z,30.30
2022-08-04T09:00:59.396Z,30.40
2022-08-04T09:04:06.361Z,30.60
2022-08-04T09:07:07.704Z,30.80
2022-08-04T09:10:11.385Z,30.90
2022-08-04T09:13:03.139Z,31.00
2022-08-04T09:15:54.322Z,31.10
2022-08-04T09:19:05.580Z,31.30
2022-08-04T09:22:00.847Z,31.50
2022-08-04T09:25:13.530Z,31.80
2022-08-04T09:28:09.568Z,31.90
2022-08-04T09:31:03.119Z,32.10
2022-08-04T09:34:11.688Z,32.20
2022-08-04T09:37:10.539Z,32.20
2022-08-04T09:40:04.840Z,32.30
2022-08-04T09:43:09.975Z,32.40
2022-08-04T09:46:26.303Z,32.60
2022-08-04T09:49:21.213Z,32.80
2022-08-04T09:52:37.554Z,32.90
2022-08-04T09:55:53.446Z,32.90
2022-08-04T09:58:58.170Z,32.80
2022-08-04T10:01:46.615Z,32.80
2022-08-04T10:04:45.230Z,32.90
2022-08-04T10:07:44.467Z,33.00
2022-08-04T10:11:30.662Z,33.20
2022-08-04T10:14:34.751Z,33.60
2022-08-04T10:17:56.957Z,33.70
2022-08-04T10:21:16.984Z,33.80
2022-08-04T10:24:26.385Z,33.90
2022-08-04T10:27:20.556Z,33.90
2022-08-04T10:30:12.486Z,34.00
2022-08-04T10:33:03.887Z,34.00
2022-08-04T10:36:02.955Z,34.10
2022-08-04T10:38:52.570Z,34.30
2022-08-04T10:41:42.401Z,34.40
2022-08-04T10:44:47.208Z,34.50
2022-08-04T10:47:38.579Z,34.70
2022-08-04T10:50:25.379Z,35.00
2022-08-04T10:53:17.680Z,34.90
2022-08-04T10:56:09.590Z,35.10
2022-08-04T10:59:00.986Z,35.10
2022-08-04T11:02:01.323Z,35.10
2022-08-04T11:05:01.438Z,35.20
2022-08-04T11:07:51.445Z,35.40
2022-08-04T11:10:43.825Z,35.50
2022-08-04T11:13:34.742Z,35.50
2022-08-04T11:16:25.390Z,35.70
2022-08-04T11:19:44.796Z,36.00
2022-08-04T11:22:37.004Z,36.00
2022-08-04T11:25:56.195Z,36.00
2022-08-04T11:29:05.487Z,36.00
2022-08-04T11:31:52.104Z,36.10
2022-08-04T11:34:43.789Z,36.30
2022-08-04T11:37:45.290Z,36.40
2022-08-04T11:40:42.050Z,36.60
2022-08-04T11:44:01.749Z,36.70
2022-08-04T11:46:53.111Z,36.90
2022-08-04T11:49:56.662Z,37.00
2022-08-04T11:52:45.524Z,37.20
2022-08-04T11:55:32.569Z,37.20
2022-08-04T11:58:38.716Z,37.30
2022-08-04T12:01:48.945Z,37.30
2022-08-04T12:04:57.248Z,37.20
2022-08-04T12:07:59.097Z,37.30
2022-08-04T12:10:53.343Z,37.50
2022-08-04T12:14:04.198Z,37.60
2022-08-04T12:16:56.036Z,37.70
2022-08-04T12:20:04.807Z,37.90
2022-08-04T12:23:07.949Z,38.00
2022-08-04T12:25:58.811Z,38.30
2022-08-04T12:29:09.062Z,38.50
2022-08-04T12:32:04.458Z,38.30
2022-08-04T12:35:08.861Z,38.20
2022-08-04T12:38:06.648Z,38.50
2022-08-04T12:40:54.890Z,39.00
2022-08-04T12:43:42.924Z,39.20
2022-08-04T12:46:30.892Z,39.00
2022-08-04T12:49:17.017Z,38.80
2022-08-04T12:52:09.461Z,38.80
2022-08-04T12:54:57.601Z,38.80
2022-08-04T12:57:43.984Z,38.90
2022-08-04T13:00:40.022Z,39.20
2022-08-04T13:03:49.985Z,39.60
2022-08-04T13:06:36.891Z,39.60
2022-08-04T13:09:26.285Z,39.80
2022-08-04T13:12:17.657Z,39.40
2022-08-04T13:15:17.549Z,39.40
2022-08-04T13:18:14.841Z,39.50
2022-08-04T13:21:49.873Z,39.40
2022-08-04T13:24:32.211Z,39.20
2022-08-04T13:27:20.508Z,39.60
2022-08-04T13:30:06.196Z,39.50
2022-08-04T13:33:13.211Z,39.50
2022-08-04T13:35:59.953Z,39.50
2022-08-04T13:38:53.056Z,39.80
2022-08-04T13:41:43.476Z,39.80
2022-08-04T13:44:33.978Z,39.70
2022-08-04T13:47:30.242Z,39.40
2022-08-04T13:50:17.595Z,39.40
2022-08-04T13:53:03.814Z,39.50
2022-08-04T13:55:49.732Z,39.40
2022-08-04T13:58:47.307Z,39.60
2022-08-04T14:01:35.953Z,39.60
2022-08-04T14:04:23.534Z,39.40
2022-08-04T14:07:20.762Z,39.60
2022-08-04T14:10:12.205Z,39.70
2022-08-04T14:12:57.438Z,40.00
2022-08-04T14:16:03.824Z,40.10
2022-08-04T14:18:59.996Z,40.20
2022-08-04T14:21:45.128Z,40.50
2022-08-04T14:24:30.547Z,40.30
2022-08-04T14:27:15.827Z,39.70
2022-08-04T14:30:01.401Z,39.50
2022-08-04T14:34:00.431Z,39.60
2022-08-04T14:36:14.882Z,39.50
2022-08-04T14:39:01.241Z,39.60
2022-08-04T14:41:48.983Z,39.70
2022-08-04T14:44:56.753Z,39.70
2022-08-04T14:47:52.283Z,39.80
2022-08-04T14:50:44.077Z,39.90
2022-08-04T14:53:29.713Z,40.00
2022-08-04T14:56:37.586Z,40.20
2022-08-04T14:59:21.665Z,39.90
2022-08-04T15:02:07.691Z,39.90
2022-08-04T15:04:53.394Z,40.00
2022-08-04T15:07:38.950Z,40.20
2022-08-04T15:10:25.175Z,40.20
2022-08-04T15:13:14.034Z,40.10
2022-08-04T15:16:07.927Z,39.90
2022-08-04T15:18:56.722Z,39.80
2022-08-04T15:21:42.534Z,39.90
2022-08-04T15:24:28.040Z,40.00
2022-08-04T15:27:15.014Z,40.10
2022-08-04T15:30:05.628Z,39.70
2022-08-04T15:32:54.311Z,40.00
2022-08-04T15:35:43.322Z,40.00
2022-08-04T15:38:36.871Z,39.90
2022-08-04T15:41:58.153Z,40.10
2022-08-04T15:45:05.423Z,40.30
2022-08-04T15:48:03.028Z,40.30
2022-08-04T15:51:00.223Z,40.20
2022-08-04T15:54:02.657Z,40.10
2022-08-04T15:57:02.603Z,40.00
2022-08-04T16:00:06.324Z,39.50
2022-08-04T16:02:53.116Z,39.40
2022-08-04T16:05:39.519Z,39.30
2022-08-04T16:08:25.464Z,39.40
2022-08-04T16:11:32.460Z,39.60
2022-08-04T16:14:29.967Z,39.60
2022-08-04T16:17:16.464Z,39.70
2022-08-04T16:20:08.523Z,39.80
2022-08-04T16:23:00.904Z,40.00
2022-08-04T16:25:51.069Z,40.10
2022-08-04T16:28:43.241Z,40.00
2022-08-04T16:31:28.377Z,39.90
2022-08-04T16:34:49.539Z,40.00
2022-08-04T16:37:38.217Z,39.70
2022-08-04T16:40:35.902Z,39.60
2022-08-04T16:43:26.802Z,39.30
2022-08-04T16:47:01.221Z,39.20
2022-08-04T16:50:02.214Z,39.00
2022-08-04T16:52:49.516Z,38.90
2022-08-04T16:55:35.825Z,38.90
2022-08-04T16:58:32.661Z,38.70
2022-08-04T17:01:21.546Z,38.50
2022-08-04T17:04:07.924Z,38.30
2022-08-04T17:07:00.140Z,38.40
2022-08-04T17:09:52.358Z,38.40
2022-08-04T17:12:37.920Z,38.30
2022-08-04T17:15:25.387Z,38.10
2022-08-04T17:18:15.872Z,37.80
2022-08-04T17:21:11.964Z,37.60
2022-08-04T17:24:16.448Z,37.20
2022-08-04T17:30:27.128Z,36.90
2022-08-04T17:33:18.762Z,36.90
2022-08-04T17:36:07.872Z,36.90
2022-08-04T17:39:01.164Z,36.90
2022-08-04T17:41:48.743Z,36.80
2022-08-04T17:44:38.284Z,36.70
2022-08-04T17:47:23.968Z,36.60
2022-08-04T17:50:11.543Z,36.60
2022-08-04T17:53:00.793Z,36.50
2022-08-04T17:55:49.569Z,36.60
2022-08-04T17:58:34.977Z,36.50
2022-08-04T18:01:24.785Z,36.50
2022-08-04T18:04:37.053Z,36.40
2022-08-04T18:08:39.480Z,36.40
2022-08-04T18:10:52.739Z,36.40
2022-08-04T18:13:42.818Z,36.20
2022-08-04T18:16:28.758Z,36.10
2022-08-04T18:19:19.140Z,35.90
2022-08-04T18:22:07.319Z,35.80
2022-08-04T18:24:58.170Z,35.70
2022-08-04T18:27:55.118Z,35.50
2022-08-04T18:30:54.783Z,35.30
2022-08-04T18:33:42.273Z,35.20
2022-08-04T18:40:21.374Z,34.90
2022-08-04T18:42:39.498Z,34.70
2022-08-04T18:45:32.424Z,34.60
2022-08-04T18:48:19.679Z,34.40
2022-08-04T18:51:22.331Z,34.30
2022-08-04T18:54:11.166Z,34.20
2022-08-04T18:57:32.811Z,34.20
2022-08-04T19:00:03.643Z,34.10
2022-08-04T19:02:48.928Z,33.90
2022-08-04T19:05:37.779Z,33.80
2022-08-04T19:08:33.240Z,33.70
2022-08-04T19:11:37.945Z,33.70
2022-08-04T19:14:24.682Z,33.50
2022-08-04T19:17:12.369Z,33.50
2022-08-04T19:19:57.773Z,33.40
2022-08-04T19:24:11.335Z,33.30
2022-08-04T19:26:01.541Z,33.20
2022-08-04T19:28:49.582Z,33.10
2022-08-04T19:31:40.171Z,33.10
2022-08-04T19:34:33.354Z,33.00
2022-08-04T19:37:58.478Z,32.90
2022-08-04T19:40:34.060Z,32.90
2022-08-04T19:43:20.697Z,32.80
2022-08-04T19:46:09.189Z,32.70
2022-08-04T19:48:59.855Z,32.50
2022-08-04T19:51:46.314Z,32.50
2022-08-04T19:54:32.173Z,32.40
2022-08-04T19:57:17.260Z,32.30
2022-08-04T20:00:05.167Z,32.30
2022-08-04T20:02:50.710Z,32.20
2022-08-04T20:05:55.080Z,32.10
2022-08-04T20:08:48.555Z,32.00
2022-08-04T20:11:34.024Z,32.00
2022-08-04T20:14:19.590Z,32.00
2022-08-04T20:17:17.891Z,32.00
2022-08-04T20:20:05.225Z,31.80
2022-08-04T20:22:53.797Z,31.70
2022-08-04T20:25:39.338Z,31.70
2022-08-04T20:28:36.405Z,31.60
2022-08-04T20:31:21.979Z,31.60
2022-08-04T20:34:07.324Z,31.60
2022-08-04T20:36:53.237Z,31.50
2022-08-04T20:39:39.632Z,31.30
2022-08-04T20:42:27.197Z,31.10
2022-08-04T20:45:22.667Z,31.00
2022-08-04T20:48:08.033Z,30.90
2022-08-04T20:50:55.343Z,30.70
2022-08-04T20:53:52.764Z,30.50
2022-08-04T20:56:38.329Z,30.40
2022-08-04T20:59:37.207Z,30.30
2022-08-04T21:02:22.757Z,30.30
2022-08-04T21:08:13.811Z,30.00
2022-08-04T21:10:59.246Z,30.00
2022-08-04T21:13:52.057Z,29.90
2022-08-04T21:16:55.905Z,29.80
2022-08-04T21:19:42.082Z,29.80
2022-08-04T21:22:33.186Z,29.80
2022-08-04T21:28:25.633Z,29.70
2022-08-04T21:31:21.847Z,29.60
2022-08-04T21:34:07.715Z,29.50
2022-08-04T21:36:53.901Z,29.40
2022-08-04T21:39:50.335Z,29.40
2022-08-04T21:42:49.966Z,29.30
2022-08-04T21:45:38.860Z,29.30
2022-08-04T21:48:27.570Z,29.20
2022-08-04T21:52:00.612Z,29.10
2022-08-04T21:54:31.039Z,29.00
2022-08-04T21:57:16.447Z,29.10
2022-08-04T22:00:01.981Z,29.10
2022-08-04T22:02:53.291Z,29.00
2022-08-04T22:05:39.085Z,29.00
2022-08-04T22:11:48.236Z,28.90
2022-08-04T22:14:34.812Z,28.80
2022-08-04T22:17:19.946Z,28.80
2022-08-04T22:20:05.924Z,28.80
2022-08-04T22:23:16.648Z,28.70
2022-08-04T22:26:02.652Z,28.60
2022-08-04T22:28:49.320Z,28.60
2022-08-04T22:31:56.140Z,28.60
2022-08-04T22:34:45.408Z,28.60
2022-08-04T22:37:35.968Z,28.50
2022-08-04T22:40:28.184Z,28.50
2022-08-04T22:43:33.792Z,28.50
2022-08-04T22:46:25.078Z,28.40
2022-08-04T22:49:10.526Z,28.30
2022-08-04T22:51:56.345Z,28.30
2022-08-04T22:54:42.945Z,28.20
2022-08-04T22:57:43.429Z,28.20
2022-08-04T23:00:36.275Z,28.20
2022-08-04T23:03:37.086Z,28.20
2022-08-04T23:06:25.706Z,28.20
2022-08-04T23:09:16.188Z,28.10
2022-08-04T23:12:23.832Z,28.10
2022-08-04T23:15:07.716Z,28.10
2022-08-04T23:17:58.612Z,28.00
2022-08-04T23:20:44.446Z,28.00
2022-08-04T23:23:29.873Z,28.00
2022-08-04T23:26:16.197Z,27.90
2022-08-04T23:29:03.671Z,27.90
2022-08-04T23:31:59.220Z,27.80
2022-08-04T23:34:45.573Z,27.80
2022-08-04T23:37:35.517Z,27.70
2022-08-04T23:40:32.514Z,27.70
2022-08-04T23:43:19.305Z,27.70
2022-08-04T23:46:08.017Z,27.70
2022-08-04T23:48:54.246Z,27.60
2022-08-04T23:51:39.316Z,27.50
2022-08-04T23:54:25.801Z,27.50
2022-08-04T23:57:17.184Z,27.50
